createdAt,value
2023-05-03T00:02:17.385Z,100.00
2023-05-03T00:05:46.685Z,100.00
2023-05-03T00:09:02.880Z,100.00
2023-05-03T00:12:27.789Z,100.00
2023-05-03T00:15:46.020Z,100.00
2023-05-03T00:19:35.048Z,100.00
2023-05-03T00:22:40.435Z,100.00
2023-05-03T00:26:26.917Z,100.00
2023-05-03T00:30:10.065Z,100.00
2023-05-03T00:33:57.574Z,100.00
2023-05-03T00:37:38.703Z,100.00
2023-05-03T00:41:20.332Z,100.00
2023-05-03T00:44:55.738Z,100.00
2023-05-03T00:48:33.919Z,100.00
2023-05-03T00:52:14.505Z,100.00
2023-05-03T00:55:46.982Z,100.00
2023-05-03T00:59:17.910Z,100.00
2023-05-03T01:02:56.292Z,100.00
2023-05-03T01:06:32.227Z,100.00
2023-05-03T01:10:16.143Z,100.00
2023-05-03T01:14:14.151Z,100.00
2023-05-03T01:18:03.114Z,100.00
2023-05-03T01:21:53.878Z,100.00
2023-05-03T01:25:23.676Z,100.00
2023-05-03T01:28:41.101Z,100.00
2023-05-03T01:32:14.505Z,100.00
2023-05-03T01:36:09.038Z,100.00
2023-05-03T01:40:00.887Z,100.00
2023-05-03T01:43:43.564Z,100.00
2023-05-03T01:47:32.609Z,100.00
2023-05-03T01:51:03.434Z,100.00
2023-05-03T01:54:38.915Z,100.00
2023-05-03T01:58:28.004Z,100.00
2023-05-03T02:02:06.040Z,100.00
2023-05-03T02:05:23.830Z,100.00
2023-05-03T02:09:12.839Z,100.00
2023-05-03T02:12:51.596Z,100.00
2023-05-03T02:16:31.408Z,100.00
2023-05-03T02:19:34.438Z,100.00
2023-05-03T02:22:57.249Z,100.00
2023-05-03T02:26:36.449Z,100.00
2023-05-03T02:30:25.356Z,100.00
2023-05-03T02:33:56.524Z,100.00
2023-05-03T02:37:43.457Z,100.00
2023-05-03T02:41:01.778Z,100.00
2023-05-03T02:44:43.461Z,100.00
2023-05-03T02:48:32.343Z,100.00
2023-05-03T02:51:41.901Z,100.00
2023-05-03T02:54:49.503Z,100.00
2023-05-03T02:57:56.986Z,100.00
2023-05-03T03:01:14.628Z,100.00
2023-05-03T03:04:52.526Z,100.00
2023-05-03T03:07:52.805Z,100.00
2023-05-03T03:11:25.299Z,100.00
2023-05-03T03:14:47.173Z,100.00
2023-05-03T03:17:45.660Z,100.00
2023-05-03T03:21:00.316Z,100.00
2023-05-03T03:24:49.295Z,100.00
2023-05-03T03:28:20.191Z,100.00
2023-05-03T03:31:36.954Z,100.00
2023-05-03T03:35:08.525Z,100.00
2023-05-03T03:38:28.087Z,100.00
2023-05-03T03:42:10.026Z,100.00
2023-05-03T03:45:48.713Z,100.00
2023-05-03T03:49:22.162Z,100.00
2023-05-03T03:52:36.964Z,100.00
2023-05-03T03:56:07.296Z,100.00
2023-05-03T03:59:24.814Z,100.00
2023-05-03T04:02:47.296Z,100.00
2023-05-03T04:06:19.610Z,100.00
2023-05-03T04:10:01.782Z,100.00
2023-05-03T04:13:50.998Z,100.00
2023-05-03T04:17:39.886Z,100.00
2023-05-03T04:21:28.758Z,100.00
2023-05-03T04:24:44.679Z,100.00
2023-05-03T04:28:23.388Z,100.00
2023-05-03T04:32:04.586Z,100.00
2023-05-03T04:35:40.974Z,100.00
2023-05-03T04:39:23.554Z,100.00
2023-05-03T04:43:10.816Z,100.00
2023-05-03T04:46:59.686Z,100.00
2023-05-03T04:50:37.859Z,100.00
2023-05-03T04:54:10.240Z,100.00
2023-05-03T04:57:40.957Z,100.00
2023-05-03T05:01:30.006Z,100.00
2023-05-03T05:04:58.821Z,100.00
2023-05-03T05:08:46.248Z,100.00
2023-05-03T05:12:35.069Z,100.00
2023-05-03T05:16:23.884Z,100.00
2023-05-03T05:20:12.719Z,100.00
2023-05-03T05:23:54.473Z,100.00
2023-05-03T05:27:29.392Z,100.00
2023-05-03T05:30:51.673Z,100.00
2023-05-03T05:34:14.739Z,100.00
2023-05-03T05:37:56.633Z,100.00
2023-05-03T05:41:32.186Z,100.00
2023-05-03T05:45:21.339Z,100.00
2023-05-03T05:48:48.875Z,100.00
2023-05-03T05:52:05.190Z,100.00
2023-05-03T05:55:41.862Z,100.00
2023-05-03T05:59:00.918Z,100.00
2023-05-03T06:02:18.638Z,100.00
2023-05-03T06:05:57.439Z,100.00
2023-05-03T06:09:30.832Z,100.00
2023-05-03T06:13:20.916Z,100.00
2023-05-03T06:16:49.567Z,100.00
2023-05-03T06:19:49.813Z,100.00
2023-05-03T06:23:10.462Z,100.00
2023-05-03T06:26:52.467Z,100.00
2023-05-03T06:30:34.030Z,100.00
2023-05-03T06:34:10.411Z,100.00
2023-05-03T06:37:46.383Z,100.00
2023-05-03T06:41:28.529Z,100.00
2023-05-03T06:45:11.930Z,100.00
2023-05-03T06:48:20.903Z,100.00
2023-05-03T06:51:38.372Z,100.00
2023-05-03T06:54:42.615Z,100.00
2023-05-03T06:58:21.875Z,100.00
2023-05-03T07:01:23.938Z,100.00
2023-05-03T07:04:38.227Z,100.00
2023-05-03T07:08:07.129Z,100.00
2023-05-03T07:11:34.899Z,100.00
2023-05-03T07:15:22.218Z,100.00
2023-05-03T07:19:11.378Z,96.11
2023-05-03T07:22:51.415Z,89.42
2023-05-03T07:26:29.418Z,72.04
2023-05-03T07:30:11.211Z,67.89
2023-05-03T07:33:59.747Z,63.88
2023-05-03T07:37:27.884Z,59.30
2023-05-03T07:41:16.895Z,59.92
2023-05-03T07:44:57.573Z,56.95
2023-05-03T07:48:47.035Z,52.39
2023-05-03T07:52:21.055Z,49.25
2023-05-03T07:56:00.079Z,49.57
2023-05-03T07:59:49.380Z,47.27
2023-05-03T08:03:24.527Z,46.19
2023-05-03T08:06:45.932Z,44.34
2023-05-03T08:10:35.120Z,45.06
2023-05-03T08:14:26.616Z,46.30
2023-05-03T08:18:23.927Z,45.64
2023-05-03T08:22:13.371Z,46.42
2023-05-03T08:26:00.914Z,44.49
2023-05-03T08:29:42.608Z,44.84
2023-05-03T08:33:21.575Z,46.82
2023-05-03T08:37:12.237Z,44.40
2023-05-03T08:40:49.178Z,43.60
2023-05-03T08:44:10.432Z,46.54
2023-05-03T08:47:39.710Z,50.72
2023-05-03T08:50:43.231Z,46.71
2023-05-03T08:54:26.105Z,45.59
2023-05-03T08:58:15.304Z,43.28
2023-05-03T09:01:44.937Z,43.34
2023-05-03T09:05:16.664Z,42.52
2023-05-03T09:11:55.711Z,41.47
2023-05-03T09:15:38.790Z,43.64
2023-05-03T09:19:28.039Z,43.41
2023-05-03T09:23:17.729Z,42.17
2023-05-03T09:27:09.933Z,41.46
2023-05-03T09:30:58.615Z,39.88
2023-05-03T09:34:56.689Z,40.40
2023-05-03T09:38:45.799Z,39.39
2023-05-03T09:42:27.711Z,40.88
2023-05-03T09:46:10.369Z,41.08
2023-05-03T09:49:52.025Z,42.85
2023-05-03T09:52:33.248Z,43.08
2023-05-03T09:56:02.191Z,43.16
2023-05-03T09:59:32.164Z,41.86
2023-05-03T10:03:12.370Z,42.40
2023-05-03T10:06:56.878Z,45.02
2023-05-03T10:10:34.702Z,41.79
2023-05-03T10:14:24.206Z,41.41
2023-05-03T10:18:13.834Z,45.01
2023-05-03T10:22:05.931Z,43.00
2023-05-03T10:25:58.222Z,41.68
2023-05-03T10:29:46.306Z,42.30
2023-05-03T10:33:33.797Z,39.40
2023-05-03T10:37:13.648Z,40.44
2023-05-03T10:41:25.315Z,37.95
2023-05-03T10:45:14.865Z,39.06
2023-05-03T10:49:11.876Z,41.55
2023-05-03T10:53:15.740Z,43.10
2023-05-03T10:57:13.383Z,44.07
2023-05-03T11:00:51.387Z,46.38
2023-05-03T11:04:43.406Z,45.29
2023-05-03T11:08:00.613Z,48.08
2023-05-03T11:11:12.843Z,50.37
2023-05-03T11:14:54.823Z,49.18
2023-05-03T11:18:09.491Z,45.84
2023-05-03T11:21:23.980Z,44.24
2023-05-03T11:25:05.644Z,42.80
2023-05-03T11:28:54.741Z,40.25
2023-05-03T11:32:37.066Z,39.34
2023-05-03T11:36:16.688Z,38.47
2023-05-03T11:39:59.487Z,41.46
2023-05-03T11:44:00.427Z,41.42
2023-05-03T11:47:50.095Z,44.47
2023-05-03T11:51:15.658Z,45.58
2023-05-03T11:55:03.493Z,48.05
2023-05-03T11:58:39.936Z,50.22
2023-05-03T12:01:55.739Z,47.83
2023-05-03T12:05:45.986Z,46.11
2023-05-03T12:09:26.017Z,45.35
2023-05-03T12:13:09.097Z,45.15
2023-05-03T12:17:00.483Z,49.32
2023-05-03T12:24:29.893Z,50.74
2023-05-03T12:32:03.719Z,51.76
2023-05-03T12:35:34.400Z,48.59
2023-05-03T12:39:16.310Z,48.74
2023-05-03T12:42:55.876Z,46.19
2023-05-03T12:46:45.342Z,46.12
2023-05-03T12:50:37.906Z,46.53
2023-05-03T12:54:25.328Z,44.60
2023-05-03T13:05:33.588Z,43.84
2023-05-03T13:09:04.177Z,44.07
2023-05-03T13:12:34.252Z,45.11
2023-05-03T13:16:16.114Z,43.73
2023-05-03T13:19:48.560Z,42.29
2023-05-03T13:23:03.282Z,44.81
2023-05-03T13:26:18.973Z,48.41
2023-05-03T13:30:00.895Z,44.93
2023-05-03T13:33:32.745Z,46.58
2023-05-03T13:37:09.896Z,49.08
2023-05-03T13:40:59.407Z,49.47
2023-05-03T13:44:23.960Z,53.28
2023-05-03T13:48:18.405Z,51.65
2023-05-03T13:51:52.489Z,48.94
2023-05-03T13:55:35.331Z,46.60
2023-05-03T13:58:57.249Z,45.59
2023-05-03T14:02:32.069Z,45.51
2023-05-03T14:06:04.408Z,44.37
2023-05-03T14:09:07.077Z,42.63
2023-05-03T14:12:39.121Z,40.91
2023-05-03T14:16:35.952Z,39.70
2023-05-03T14:20:29.658Z,41.71
2023-05-03T14:23:56.590Z,41.71
2023-05-03T14:27:38.598Z,41.15
2023-05-03T14:31:11.852Z,43.50
2023-05-03T14:35:01.675Z,42.89
2023-05-03T14:38:26.898Z,42.94
2023-05-03T14:42:02.424Z,42.10
2023-05-03T14:45:16.864Z,42.45
2023-05-03T14:48:59.315Z,44.47
2023-05-03T14:52:37.942Z,46.95
2023-05-03T14:56:27.210Z,48.88
2023-05-03T14:59:51.516Z,54.28
2023-05-03T15:03:22.218Z,54.01
2023-05-03T15:07:01.453Z,51.88
2023-05-03T15:10:43.573Z,55.16
2023-05-03T15:14:32.751Z,56.05
2023-05-03T15:18:12.604Z,54.30
2023-05-03T15:21:55.566Z,58.08
2023-05-03T15:25:30.344Z,56.59
2023-05-03T15:28:55.172Z,53.72
2023-05-03T15:32:35.499Z,51.55
2023-05-03T15:35:51.955Z,49.30
2023-05-03T15:39:24.928Z,47.98
2023-05-03T15:43:04.978Z,46.64
2023-05-03T15:46:18.608Z,47.47
2023-05-03T15:49:23.124Z,47.49
2023-05-03T15:53:12.042Z,48.33
2023-05-03T15:56:43.409Z,46.99
2023-05-03T16:00:22.447Z,46.40
2023-05-03T16:04:10.292Z,47.77
2023-05-03T16:07:49.200Z,44.45
2023-05-03T16:11:38.202Z,42.38
2023-05-03T16:15:14.882Z,45.05
2023-05-03T16:18:40.796Z,42.62
2023-05-03T16:22:22.396Z,42.64
2023-05-03T16:25:51.596Z,42.00
2023-05-03T16:29:40.742Z,41.70
2023-05-03T16:33:12.067Z,41.80
2023-05-03T16:36:45.292Z,41.53
2023-05-03T16:40:21.525Z,41.25
2023-05-03T16:43:24.422Z,40.85
2023-05-03T16:47:07.201Z,39.99
2023-05-03T16:50:56.579Z,41.90
2023-05-03T16:54:32.421Z,41.96
2023-05-03T16:57:47.525Z,41.90
2023-05-03T17:01:11.693Z,40.11
2023-05-03T17:05:01.243Z,40.99
2023-05-03T17:08:43.359Z,42.20
2023-05-03T17:12:12.544Z,43.27
2023-05-03T17:15:44.538Z,43.39
2023-05-03T17:18:58.879Z,43.71
2023-05-03T17:22:41.316Z,43.72
2023-05-03T17:26:30.627Z,45.73
2023-05-03T17:30:21.131Z,46.49
2023-05-03T17:33:49.369Z,47.83
2023-05-03T17:37:25.540Z,49.82
2023-05-03T17:40:45.106Z,54.65
2023-05-03T17:44:32.657Z,53.68
2023-05-03T17:47:40.251Z,57.16
2023-05-03T17:51:31.714Z,61.87
2023-05-03T17:55:11.100Z,65.00
2023-05-03T17:58:52.278Z,76.64
2023-05-03T18:02:23.064Z,74.51
2023-05-03T18:05:57.921Z,75.17
2023-05-03T18:09:48.320Z,76.19
2023-05-03T18:13:09.582Z,81.45
2023-05-03T18:16:46.122Z,82.33
2023-05-03T18:20:19.585Z,84.18
2023-05-03T18:23:22.698Z,82.03
2023-05-03T18:26:48.052Z,83.01
2023-05-03T18:30:27.181Z,83.82
2023-05-03T18:33:42.303Z,100.00
2023-05-03T18:37:18.697Z,100.00
2023-05-03T18:40:47.239Z,100.00
2023-05-03T18:44:15.993Z,100.00
2023-05-03T18:47:29.338Z,100.00
2023-05-03T18:51:02.797Z,100.00
2023-05-03T18:54:29.159Z,100.00
2023-05-03T18:57:33.138Z,100.00
2023-05-03T19:00:52.204Z,100.00
2023-05-03T19:04:06.637Z,100.00
2023-05-03T19:07:23.576Z,100.00
2023-05-03T19:10:39.940Z,100.00
2023-05-03T19:14:20.275Z,100.00
2023-05-03T19:17:29.503Z,100.00
2023-05-03T19:20:23.745Z,100.00
2023-05-03T19:23:29.969Z,100.00
2023-05-03T19:26:52.518Z,100.00
2023-05-03T19:30:19.651Z,100.00
2023-05-03T19:33:32.829Z,100.00
2023-05-03T19:36:33.876Z,100.00
2023-05-03T19:39:49.715Z,100.00
2023-05-03T19:43:11.449Z,100.00
2023-05-03T19:46:02.190Z,100.00
2023-05-03T19:49:42.235Z,100.00
2023-05-03T19:52:46.905Z,100.00
2023-05-03T19:55:59.723Z,100.00
2023-05-03T19:59:09.368Z,100.00
2023-05-03T20:03:04.146Z,100.00
2023-05-03T20:06:17.830Z,100.00
2023-05-03T20:09:38.700Z,100.00
2023-05-03T20:13:08.712Z,100.00
2023-05-03T20:16:34.276Z,100.00
2023-05-03T20:20:17.665Z,100.00
2023-05-03T20:24:07.445Z,100.00
2023-05-03T20:27:22.866Z,100.00
2023-05-03T20:30:40.293Z,100.00
2023-05-03T20:34:13.705Z,100.00
2023-05-03T20:37:26.447Z,100.00
2023-05-03T20:41:16.448Z,100.00
2023-05-03T20:44:42.646Z,100.00
2023-05-03T20:48:23.706Z,100.00
2023-05-03T20:52:07.231Z,100.00
2023-05-03T20:54:49.154Z,100.00
2023-05-03T20:58:19.368Z,100.00
2023-05-03T21:01:26.854Z,100.00
2023-05-03T21:04:40.943Z,100.00
2023-05-03T21:08:15.027Z,100.00
2023-05-03T21:11:53.555Z,100.00
2023-05-03T21:14:51.453Z,100.00
2023-05-03T21:18:17.856Z,100.00
2023-05-03T21:21:22.351Z,100.00
2023-05-03T21:24:42.720Z,100.00
2023-05-03T21:27:58.513Z,100.00
2023-05-03T21:31:22.716Z,100.00
2023-05-03T21:34:54.403Z,100.00
2023-05-03T21:38:37.115Z,100.00
2023-05-03T21:42:06.908Z,100.00
2023-05-03T21:45:00.009Z,100.00
2023-05-03T21:47:57.888Z,100.00
2023-05-03T21:50:53.755Z,100.00
2023-05-03T21:53:35.408Z,100.00
2023-05-03T21:56:21.942Z,100.00
2023-05-03T21:59:26.248Z,100.00
2023-05-03T22:02:34.497Z,100.00
2023-05-03T22:05:35.585Z,100.00
2023-05-03T22:09:24.475Z,100.00
2023-05-03T22:12:26.388Z,100.00
2023-05-03T22:15:14.480Z,100.00
2023-05-03T22:18:31.689Z,100.00
2023-05-03T22:21:56.714Z,100.00
2023-05-03T22:25:24.033Z,100.00
2023-05-03T22:29:12.992Z,100.00
2023-05-03T22:32:03.055Z,100.00
2023-05-03T22:35:14.529Z,100.00
2023-05-03T22:38:26.018Z,100.00
2023-05-03T22:41:23.730Z,100.00
2023-05-03T22:44:19.222Z,100.00
2023-05-03T22:47:38.254Z,100.00
2023-05-03T22:50:55.474Z,100.00
2023-05-03T22:54:01.988Z,100.00
2023-05-03T22:56:40.049Z,100.00
2023-05-03T22:59:44.712Z,100.00
2023-05-03T23:02:18.560Z,100.00
2023-05-03T23:06:00.526Z,100.00
2023-05-03T23:09:06.962Z,100.00
2023-05-03T23:12:30.749Z,100.00
2023-05-03T23:16:01.887Z,100.00
2023-05-03T23:19:08.456Z,100.00
2023-05-03T23:21:42.697Z,100.00
2023-05-03T23:24:57.514Z,100.00
2023-05-03T23:27:53.653Z,100.00
2023-05-03T23:31:34.815Z,100.00
2023-05-03T23:34:10.188Z,100.00
2023-05-03T23:37:00.784Z,100.00
2023-05-03T23:39:58.636Z,100.00
2023-05-03T23:42:33.339Z,100.00
2023-05-03T23:45:04.867Z,100.00
2023-05-03T23:48:07.234Z,100.00
2023-05-03T23:50:55.352Z,100.00
2023-05-03T23:54:43.876Z,100.00
2023-05-03T23:57:44.976Z,100.00
